createdAt,value
2019-05-18T00:02:20.226Z,17.73
2019-05-18T00:04:50.694Z,17.67
2019-05-18T00:07:21.454Z,18.00
2019-05-18T00:09:50.304Z,17.97
2019-05-18T00:12:19.100Z,17.20
2019-05-18T00:14:52.692Z,17.20
2019-05-18T00:17:25.212Z,17.23
2019-05-18T00:19:50.784Z,20.10
2019-05-18T00:22:20.168Z,16.37
2019-05-18T00:24:50.609Z,15.87
2019-05-18T00:27:22.288Z,16.53
2019-05-18T00:29:53.909Z,16.33
2019-05-18T00:32:24.082Z,16.10
2019-05-18T00:34:53.773Z,15.80
2019-05-18T00:37:24.178Z,14.97
2019-05-18T00:39:53.182Z,15.10
2019-05-18T00:42:23.853Z,17.73
2019-05-18T00:44:52.691Z,18.30
2019-05-18T00:47:40.236Z,16.60
2019-05-18T00:50:00.261Z,14.27
2019-05-18T00:52:29.666Z,14.37
2019-05-18T00:54:58.331Z,15.07
2019-05-18T00:57:28.811Z,15.47
2019-05-18T00:59:57.853Z,15.53
2019-05-18T01:02:26.571Z,16.27
2019-05-18T01:04:55.340Z,16.60
2019-05-18T01:07:24.638Z,16.23
2019-05-18T01:09:54.962Z,15.87
2019-05-18T01:12:24.548Z,17.60
2019-05-18T01:14:53.094Z,16.27
2019-05-18T01:17:23.322Z,17.27
2019-05-18T01:19:52.028Z,17.23
2019-05-18T01:22:22.307Z,18.53
2019-05-18T01:24:52.408Z,19.30
2019-05-18T01:27:24.781Z,18.17
2019-05-18T01:29:53.434Z,16.50
2019-05-18T01:32:22.823Z,15.77
2019-05-18T01:34:51.758Z,16.97
2019-05-18T01:37:26.163Z,15.47
2019-05-18T01:39:56.814Z,14.00
2019-05-18T01:42:26.232Z,14.97
2019-05-18T01:44:54.985Z,15.83
2019-05-18T01:47:25.330Z,17.20
2019-05-18T01:49:56.748Z,17.37
2019-05-18T01:52:25.583Z,16.30
2019-05-18T01:54:55.520Z,13.60
2019-05-18T01:57:27.532Z,14.60
2019-05-18T01:59:56.333Z,15.00
2019-05-18T02:02:25.267Z,16.43
2019-05-18T02:04:55.526Z,15.93
2019-05-18T02:07:25.731Z,17.57
2019-05-18T02:09:55.635Z,18.27
2019-05-18T02:12:26.711Z,15.93
2019-05-18T02:14:57.647Z,20.37
2019-05-18T02:17:28.621Z,20.97
2019-05-18T02:20:00.573Z,20.97
2019-05-18T02:22:29.355Z,19.33
2019-05-18T02:24:59.507Z,19.10
2019-05-18T02:27:28.216Z,19.80
2019-05-18T02:29:56.872Z,17.47
2019-05-18T02:32:25.594Z,18.70
2019-05-18T02:34:54.297Z,17.53
2019-05-18T02:37:24.581Z,15.90
2019-05-18T02:39:55.770Z,19.63
2019-05-18T02:42:29.882Z,19.50
2019-05-18T02:44:56.826Z,19.50
2019-05-18T02:47:26.265Z,18.50
2019-05-18T02:49:55.643Z,20.63
2019-05-18T02:52:25.879Z,20.33
2019-05-18T02:54:54.652Z,18.47
2019-05-18T02:57:29.320Z,19.77
2019-05-18T03:00:00.164Z,20.77
2019-05-18T03:02:28.842Z,20.87
2019-05-18T03:04:57.455Z,20.47
2019-05-18T03:07:26.723Z,20.30
2019-05-18T03:09:57.778Z,19.67
2019-05-18T03:12:28.944Z,21.80
2019-05-18T03:14:57.710Z,22.20
2019-05-18T03:17:26.730Z,21.10
2019-05-18T03:19:55.517Z,20.03
2019-05-18T03:22:42.052Z,21.90
2019-05-18T03:25:11.121Z,20.23
2019-05-18T03:27:39.865Z,21.20
2019-05-18T03:30:10.641Z,21.60
2019-05-18T03:32:46.886Z,18.20
2019-05-18T03:35:15.708Z,20.07
2019-05-18T03:37:44.383Z,21.17
2019-05-18T03:40:13.498Z,20.60
2019-05-18T03:42:44.024Z,21.73
2019-05-18T03:45:12.856Z,23.77
2019-05-18T03:47:42.580Z,24.77
2019-05-18T03:50:12.341Z,24.03
2019-05-18T03:52:40.939Z,26.23
2019-05-18T03:55:09.746Z,24.90
2019-05-18T03:57:38.409Z,23.30
2019-05-18T04:00:09.487Z,23.87
2019-05-18T04:02:39.638Z,25.37
2019-05-18T04:05:09.410Z,22.43
2019-05-18T04:07:42.015Z,22.07
2019-05-18T04:10:11.835Z,23.47
2019-05-18T04:12:40.617Z,25.97
2019-05-18T04:15:10.224Z,23.47
2019-05-18T04:17:39.027Z,24.60
2019-05-18T04:20:07.820Z,24.03
2019-05-18T04:22:40.662Z,21.83
2019-05-18T04:25:14.254Z,21.73
2019-05-18T04:27:42.932Z,27.60
2019-05-18T04:30:11.823Z,27.60
2019-05-18T04:32:40.508Z,32.63
2019-05-18T04:35:10.538Z,24.40
2019-05-18T04:37:41.431Z,26.53
2019-05-18T04:40:11.529Z,26.77
2019-05-18T04:42:40.938Z,26.60
2019-05-18T04:45:10.015Z,27.53
2019-05-18T04:47:38.933Z,26.57
2019-05-18T04:50:08.017Z,24.10
2019-05-18T04:52:38.292Z,22.70
2019-05-18T04:55:08.018Z,17.83
2019-05-18T04:57:38.434Z,14.87
2019-05-18T05:00:08.733Z,15.40
2019-05-18T05:02:41.001Z,17.37
2019-05-18T05:05:14.332Z,15.73
2019-05-18T05:07:45.927Z,16.27
2019-05-18T05:10:14.660Z,15.00
2019-05-18T05:12:44.058Z,15.33
2019-05-18T05:15:13.437Z,13.80
2019-05-18T05:17:43.207Z,11.90
2019-05-18T05:20:19.740Z,11.13
2019-05-18T05:22:45.546Z,11.40
2019-05-18T05:25:16.832Z,11.73
2019-05-18T05:27:45.541Z,12.63
2019-05-18T05:30:14.710Z,11.53
2019-05-18T05:32:43.481Z,11.50
2019-05-18T05:35:12.266Z,11.60
2019-05-18T05:37:41.129Z,12.23
2019-05-18T05:40:09.898Z,10.93
2019-05-18T05:42:38.641Z,12.23
2019-05-18T05:45:08.761Z,11.23
2019-05-18T05:47:38.607Z,11.03
2019-05-18T05:50:09.596Z,10.20
2019-05-18T05:52:39.923Z,10.23
2019-05-18T05:55:11.344Z,12.10
2019-05-18T05:57:42.681Z,13.07
2019-05-18T06:00:13.356Z,12.43
2019-05-18T06:02:44.958Z,10.73
2019-05-18T06:05:13.834Z,10.10
2019-05-18T06:07:45.377Z,11.37
2019-05-18T06:10:17.082Z,12.03
2019-05-18T06:12:45.782Z,11.27
2019-05-18T06:15:15.675Z,11.23
2019-05-18T06:17:45.927Z,11.30
2019-05-18T06:20:16.611Z,10.57
2019-05-18T06:22:45.803Z,12.67
2019-05-18T06:25:17.787Z,12.43
2019-05-18T06:27:47.644Z,12.00
2019-05-18T06:30:16.557Z,13.77
2019-05-18T06:32:47.913Z,13.33
2019-05-18T06:35:17.429Z,14.23
2019-05-18T06:37:46.401Z,13.10
2019-05-18T06:40:15.668Z,13.03
2019-05-18T06:42:50.837Z,14.03
2019-05-18T06:45:15.747Z,13.20
2019-05-18T06:47:48.369Z,14.27
2019-05-18T06:50:18.183Z,13.87
2019-05-18T06:52:48.435Z,14.03
2019-05-18T06:55:17.116Z,12.93
2019-05-18T06:57:45.955Z,13.10
2019-05-18T07:00:17.877Z,13.67
2019-05-18T07:02:46.763Z,11.97
2019-05-18T07:05:18.060Z,12.80
2019-05-18T07:07:47.000Z,12.53
2019-05-18T07:10:16.205Z,13.03
2019-05-18T07:12:45.031Z,13.00
2019-05-18T07:15:15.739Z,12.83
2019-05-18T07:17:44.390Z,12.97
2019-05-18T07:20:14.344Z,13.10
2019-05-18T07:22:43.544Z,13.07
2019-05-18T07:25:16.278Z,12.27
2019-05-18T07:27:47.145Z,14.80
2019-05-18T07:30:16.820Z,14.97
2019-05-18T07:32:45.979Z,14.63
2019-05-18T07:35:15.560Z,13.87
2019-05-18T07:37:45.880Z,14.27
2019-05-18T07:40:16.099Z,14.17
2019-05-18T07:42:46.187Z,14.37
2019-05-18T07:45:15.758Z,15.67
2019-05-18T07:47:47.941Z,16.63
2019-05-18T07:50:21.196Z,16.93
2019-05-18T07:52:49.969Z,17.33
2019-05-18T07:55:24.835Z,16.43
2019-05-18T07:57:57.191Z,14.03
2019-05-18T08:00:28.114Z,16.40
2019-05-18T08:02:59.254Z,17.00
2019-05-18T08:05:28.459Z,14.63
2019-05-18T08:07:57.151Z,13.87
2019-05-18T08:10:36.901Z,13.83
2019-05-18T08:13:07.225Z,14.87
2019-05-18T08:15:36.607Z,13.93
2019-05-18T08:18:05.580Z,15.30
2019-05-18T08:20:35.922Z,16.43
2019-05-18T08:23:05.176Z,15.17
2019-05-18T08:25:34.032Z,13.73
2019-05-18T08:28:02.975Z,13.63
2019-05-18T08:30:33.672Z,14.07
2019-05-18T08:33:02.534Z,13.90
2019-05-18T08:35:31.272Z,15.60
2019-05-18T08:38:03.468Z,14.70
2019-05-18T08:40:33.400Z,15.60
2019-05-18T08:43:02.241Z,16.13
2019-05-18T08:45:31.604Z,15.63
2019-05-18T08:48:00.351Z,14.90
2019-05-18T08:50:29.012Z,14.03
2019-05-18T08:52:58.055Z,15.20
2019-05-18T08:55:27.448Z,15.73
2019-05-18T08:57:56.180Z,13.47
2019-05-18T09:00:26.147Z,13.23
2019-05-18T09:02:54.907Z,12.27
2019-05-18T09:05:24.275Z,11.47
2019-05-18T09:07:54.612Z,11.43
2019-05-18T09:10:25.300Z,11.90
2019-05-18T09:12:54.294Z,11.83
2019-05-18T09:15:26.991Z,12.37
2019-05-18T09:18:06.534Z,11.17
2019-05-18T09:20:37.206Z,11.23
2019-05-18T09:23:05.981Z,10.57
2019-05-18T09:25:34.992Z,9.23
2019-05-18T09:28:03.783Z,7.80
2019-05-18T09:30:32.509Z,8.80
2019-05-18T09:33:01.301Z,7.53
2019-05-18T09:35:30.088Z,7.40
2019-05-18T09:37:58.800Z,7.13
2019-05-18T09:40:30.747Z,6.47
2019-05-18T09:42:59.713Z,6.47
2019-05-18T09:45:29.769Z,5.50
2019-05-18T09:47:59.949Z,6.00
2019-05-18T09:50:29.969Z,5.70
2019-05-18T09:52:59.459Z,4.80
2019-05-18T09:55:28.165Z,5.77
2019-05-18T09:57:56.908Z,4.20
2019-05-18T10:00:27.562Z,3.77
2019-05-18T10:02:57.502Z,5.00
2019-05-18T10:05:26.853Z,5.53
2019-05-18T10:07:57.884Z,5.40
2019-05-18T10:10:33.770Z,6.20
2019-05-18T10:13:08.170Z,7.20
2019-05-18T10:15:37.069Z,7.83
2019-05-18T10:18:07.374Z,8.13
2019-05-18T10:20:38.930Z,7.93
2019-05-18T10:23:13.081Z,8.40
2019-05-18T10:25:38.874Z,8.93
2019-05-18T10:28:08.486Z,8.80
2019-05-18T10:30:37.335Z,8.80
2019-05-18T10:33:08.363Z,8.43
2019-05-18T10:35:41.924Z,9.00
2019-05-18T10:38:11.208Z,8.93
2019-05-18T10:40:39.975Z,8.27
2019-05-18T10:43:11.545Z,8.57
2019-05-18T10:45:44.745Z,8.77
2019-05-18T10:48:13.479Z,9.00
2019-05-18T10:50:43.747Z,9.43
2019-05-18T10:53:27.935Z,8.83
2019-05-18T10:55:47.481Z,8.40
2019-05-18T10:58:16.316Z,8.20
2019-05-18T11:00:46.213Z,8.37
2019-05-18T11:03:19.484Z,9.20
2019-05-18T11:05:49.783Z,8.67
2019-05-18T11:08:27.219Z,7.90
2019-05-18T11:11:00.674Z,8.13
2019-05-18T11:13:29.445Z,8.77
2019-05-18T11:16:00.801Z,8.00
2019-05-18T11:18:30.598Z,8.43
2019-05-18T11:20:59.496Z,8.60
2019-05-18T11:23:41.465Z,8.50
2019-05-18T11:25:58.983Z,9.80
2019-05-18T11:28:28.500Z,8.30
2019-05-18T11:30:58.724Z,8.87
2019-05-18T11:33:29.854Z,8.93
2019-05-18T11:36:01.231Z,8.67
2019-05-18T11:38:32.904Z,8.87
2019-05-18T11:41:03.811Z,9.13
2019-05-18T11:43:38.025Z,9.57
2019-05-18T11:46:09.178Z,9.07
2019-05-18T11:48:41.110Z,9.77
2019-05-18T11:51:18.237Z,9.10
2019-05-18T11:53:57.868Z,9.03
2019-05-18T11:56:19.411Z,9.37
2019-05-18T11:58:50.964Z,9.97
2019-05-18T12:01:21.286Z,9.40
2019-05-18T12:03:51.670Z,9.47
2019-05-18T12:06:24.139Z,10.03
2019-05-18T12:08:59.030Z,9.17
2019-05-18T12:11:30.974Z,9.70
2019-05-18T12:14:08.058Z,9.53
2019-05-18T12:16:38.603Z,9.37
2019-05-18T12:19:11.528Z,9.87
2019-05-18T12:21:48.704Z,9.93
2019-05-18T12:24:17.231Z,10.27
2019-05-18T12:26:50.185Z,9.57
2019-05-18T12:29:24.238Z,9.70
2019-05-18T12:31:53.562Z,10.00
2019-05-18T12:34:31.403Z,9.00
2019-05-18T12:37:00.527Z,9.47
2019-05-18T12:39:32.496Z,9.90
2019-05-18T12:42:07.482Z,9.10
2019-05-18T12:44:39.075Z,9.90
2019-05-18T12:47:08.448Z,9.47
2019-05-18T12:49:39.031Z,9.23
2019-05-18T12:52:10.859Z,9.73
2019-05-18T12:54:46.533Z,9.20
2019-05-18T12:57:12.649Z,9.07
2019-05-18T12:59:42.600Z,9.37
2019-05-18T13:02:14.628Z,8.00
2019-05-18T13:04:43.545Z,7.60
2019-05-18T13:07:13.777Z,8.20
2019-05-18T13:09:42.607Z,8.00
2019-05-18T13:12:12.511Z,7.27
2019-05-18T13:14:43.607Z,7.27
2019-05-18T13:17:14.616Z,7.77
2019-05-18T13:19:44.733Z,7.80
2019-05-18T13:22:16.339Z,7.53
2019-05-18T13:24:52.279Z,7.40
2019-05-18T13:27:21.212Z,8.00
2019-05-18T13:29:51.265Z,8.47
2019-05-18T13:32:24.902Z,8.23
2019-05-18T13:34:55.727Z,8.50
2019-05-18T13:37:26.376Z,9.20
2019-05-18T13:39:57.040Z,7.90
2019-05-18T13:42:26.783Z,8.53
2019-05-18T13:44:57.021Z,7.97
2019-05-18T13:47:30.747Z,7.53
2019-05-18T13:49:59.484Z,7.00
2019-05-18T13:52:30.246Z,7.07
2019-05-18T13:55:03.848Z,7.20
2019-05-18T13:57:36.294Z,7.13
2019-05-18T14:00:33.629Z,6.83
2019-05-18T14:02:44.308Z,8.50
2019-05-18T14:05:16.722Z,7.40
2019-05-18T14:07:47.909Z,8.43
2019-05-18T14:10:23.040Z,7.50
2019-05-18T14:12:53.487Z,8.30
2019-05-18T14:15:25.810Z,7.73
2019-05-18T14:17:55.125Z,8.07
2019-05-18T14:20:26.545Z,6.97
2019-05-18T14:22:59.662Z,7.60
2019-05-18T14:25:29.661Z,7.63
2019-05-18T14:28:00.219Z,6.60
2019-05-18T14:30:29.361Z,7.47
2019-05-18T14:32:59.601Z,6.70
2019-05-18T14:35:33.508Z,7.40
2019-05-18T14:38:09.464Z,6.77
2019-05-18T14:40:38.784Z,7.70
2019-05-18T14:43:09.826Z,7.20
2019-05-18T14:45:38.896Z,6.73
2019-05-18T14:48:09.162Z,7.07
2019-05-18T14:50:39.244Z,7.23
2019-05-18T14:53:08.650Z,7.03
2019-05-18T14:55:43.705Z,7.23
2019-05-18T14:58:12.670Z,6.13
2019-05-18T15:00:42.184Z,6.87
2019-05-18T15:03:12.824Z,6.37
2019-05-18T15:05:43.615Z,7.73
2019-05-18T15:08:14.912Z,6.70
2019-05-18T15:10:43.796Z,7.00
2019-05-18T15:13:14.403Z,6.20
2019-05-18T15:15:46.859Z,6.50
2019-05-18T15:18:17.142Z,6.77
2019-05-18T15:20:49.369Z,6.70
2019-05-18T15:23:18.693Z,7.20
2019-05-18T15:25:50.510Z,6.77
2019-05-18T15:28:18.736Z,6.87
2019-05-18T15:30:51.221Z,6.47
2019-05-18T15:33:20.012Z,6.33
2019-05-18T15:35:50.216Z,6.77
2019-05-18T15:38:20.457Z,6.70
2019-05-18T15:40:49.493Z,6.63
2019-05-18T15:43:24.241Z,6.80
2019-05-18T15:45:53.262Z,6.80
2019-05-18T15:48:25.471Z,6.93
2019-05-18T15:50:54.300Z,6.30
2019-05-18T15:53:23.075Z,4.80
2019-05-18T15:56:05.468Z,4.90
2019-05-18T15:58:26.568Z,4.60
2019-05-18T16:00:56.767Z,4.30
2019-05-18T16:03:29.042Z,4.43
2019-05-18T16:06:00.840Z,4.63
2019-05-18T16:08:32.168Z,4.43
2019-05-18T16:11:01.524Z,4.50
2019-05-18T16:13:31.226Z,5.47
2019-05-18T16:16:13.607Z,4.53
2019-05-18T16:18:45.670Z,5.23
2019-05-18T16:21:16.766Z,4.83
2019-05-18T16:23:47.344Z,5.27
2019-05-18T16:26:21.834Z,5.67
2019-05-18T16:28:50.784Z,5.10
2019-05-18T16:31:21.068Z,5.47
2019-05-18T16:33:52.842Z,5.03
2019-05-18T16:36:22.950Z,5.37
2019-05-18T16:39:05.105Z,5.40
2019-05-18T16:41:36.695Z,5.30
2019-05-18T16:44:13.582Z,13.20
2019-05-18T16:46:46.057Z,5.20
2019-05-18T16:49:17.304Z,5.67
2019-05-18T16:51:48.298Z,5.27
2019-05-18T16:54:24.702Z,5.77
2019-05-18T16:56:55.333Z,5.87
2019-05-18T16:59:27.324Z,5.40
2019-05-18T17:01:56.542Z,7.03
2019-05-18T17:04:28.083Z,5.63
2019-05-18T17:06:57.418Z,6.33
2019-05-18T17:09:27.886Z,6.50
2019-05-18T17:12:01.071Z,6.30
2019-05-18T17:14:29.962Z,6.93
2019-05-18T17:16:59.542Z,7.20
2019-05-18T17:19:28.338Z,6.83
2019-05-18T17:21:57.488Z,6.90
2019-05-18T17:24:27.833Z,6.70
2019-05-18T17:27:02.050Z,6.40
2019-05-18T17:29:36.031Z,6.70
2019-05-18T17:32:06.832Z,6.70
2019-05-18T17:34:41.588Z,7.00
2019-05-18T17:37:17.875Z,6.97
2019-05-18T17:39:48.987Z,7.43
2019-05-18T17:42:19.971Z,7.47
2019-05-18T17:44:51.883Z,7.43
2019-05-18T17:47:30.654Z,7.20
2019-05-18T17:50:01.452Z,8.20
2019-05-18T17:52:31.539Z,7.27
2019-05-18T17:55:05.234Z,7.10
2019-05-18T17:57:48.797Z,7.70
2019-05-18T18:00:29.656Z,7.80
2019-05-18T18:05:36.715Z,7.53
2019-05-18T18:08:10.409Z,7.77
2019-05-18T18:10:39.967Z,6.97
2019-05-18T18:13:12.052Z,7.63
2019-05-18T18:15:45.059Z,7.97
2019-05-18T18:18:20.727Z,8.07
2019-05-18T18:20:53.425Z,8.23
2019-05-18T18:23:26.399Z,8.53
2019-05-18T18:25:59.017Z,8.33
2019-05-18T18:31:23.821Z,9.57
2019-05-18T18:33:57.464Z,9.03
2019-05-18T18:36:29.118Z,9.73
2019-05-18T18:39:05.182Z,9.73
2019-05-18T18:41:45.743Z,9.50
2019-05-18T18:44:15.030Z,10.30
2019-05-18T18:46:50.968Z,10.67
2019-05-18T18:49:38.246Z,11.33
2019-05-18T18:52:12.795Z,10.37
2019-05-18T18:54:48.525Z,11.63
2019-05-18T18:57:21.453Z,10.77
2019-05-18T18:59:56.409Z,11.40
2019-05-18T19:02:28.726Z,11.63
2019-05-18T19:05:03.445Z,11.80
2019-05-18T19:07:54.787Z,12.10
2019-05-18T19:10:23.930Z,12.10
2019-05-18T19:12:52.770Z,12.30
2019-05-18T19:15:27.232Z,12.30
2019-05-18T19:18:02.289Z,11.83
2019-05-18T19:20:34.062Z,11.73
2019-05-18T19:23:08.283Z,12.20
2019-05-18T19:25:47.276Z,12.07
2019-05-18T19:28:17.784Z,11.40
2019-05-18T19:30:57.756Z,11.90
2019-05-18T19:33:27.001Z,11.70
2019-05-18T19:36:14.293Z,12.97
2019-05-18T19:38:51.023Z,11.93
2019-05-18T19:41:29.680Z,12.30
2019-05-18T19:44:05.457Z,12.73
2019-05-18T19:46:38.342Z,12.17
2019-05-18T19:49:13.259Z,12.30
2019-05-18T19:51:54.677Z,12.40
2019-05-18T19:54:30.519Z,12.50
2019-05-18T19:57:04.957Z,11.97
2019-05-18T19:59:39.434Z,12.37
2019-05-18T20:02:18.359Z,11.53
2019-05-18T20:07:41.590Z,11.20
2019-05-18T20:10:28.111Z,10.93
2019-05-18T20:13:04.024Z,11.33
2019-05-18T20:15:42.235Z,12.97
2019-05-18T20:18:12.740Z,11.97
2019-05-18T20:20:46.852Z,12.47
2019-05-18T20:23:22.204Z,13.00
2019-05-18T20:25:52.892Z,12.27
2019-05-18T20:28:24.183Z,13.33
2019-05-18T20:30:59.425Z,13.80
2019-05-18T20:33:34.849Z,13.40
2019-05-18T20:36:05.000Z,13.30
2019-05-18T20:38:33.992Z,12.40
2019-05-18T20:41:07.066Z,12.50
2019-05-18T20:43:37.028Z,13.13
2019-05-18T20:46:13.971Z,11.93
2019-05-18T20:48:47.298Z,11.70
2019-05-18T20:51:19.815Z,10.77
2019-05-18T20:53:55.460Z,11.87
2019-05-18T20:56:26.096Z,11.53
2019-05-18T20:58:59.854Z,10.83
2019-05-18T21:01:30.484Z,10.17
2019-05-18T21:04:03.376Z,11.27
2019-05-18T21:06:38.504Z,10.77
2019-05-18T21:09:25.698Z,10.83
2019-05-18T21:12:04.433Z,10.33
2019-05-18T21:14:31.293Z,10.80
2019-05-18T21:17:01.763Z,10.90
2019-05-18T21:19:37.136Z,10.00
2019-05-18T21:22:06.485Z,10.17
2019-05-18T21:27:26.038Z,9.63
2019-05-18T21:29:56.306Z,10.33
2019-05-18T21:32:26.516Z,9.20
2019-05-18T21:34:56.646Z,9.73
2019-05-18T21:37:29.304Z,9.63
2019-05-18T21:40:02.885Z,8.77
2019-05-18T21:42:36.379Z,9.70
2019-05-18T21:45:08.959Z,9.73
2019-05-18T21:47:39.157Z,9.80
2019-05-18T21:50:11.293Z,9.00
2019-05-18T21:52:48.050Z,8.87
2019-05-18T21:55:18.696Z,9.97
2019-05-18T21:57:51.274Z,9.80
2019-05-18T22:00:22.572Z,8.97
2019-05-18T22:02:54.524Z,10.07
2019-05-18T22:05:24.787Z,9.20
2019-05-18T22:07:55.325Z,9.17
2019-05-18T22:10:30.382Z,8.93
2019-05-18T22:13:06.188Z,7.30
2019-05-18T22:15:43.342Z,8.20
2019-05-18T22:18:24.032Z,7.93
2019-05-18T22:20:46.723Z,7.83
2019-05-18T22:23:22.594Z,7.70
2019-05-18T22:25:57.143Z,7.10
2019-05-18T22:28:27.580Z,6.57
2019-05-18T22:30:58.396Z,7.17
2019-05-18T22:33:29.737Z,7.50
2019-05-18T22:36:01.606Z,6.70
2019-05-18T22:38:35.723Z,7.10
2019-05-18T22:41:11.478Z,6.73
2019-05-18T22:43:48.869Z,7.40
2019-05-18T22:46:23.087Z,7.10
2019-05-18T22:48:59.599Z,6.87
2019-05-18T22:51:32.391Z,7.13
2019-05-18T22:54:12.167Z,7.63
2019-05-18T22:56:44.260Z,7.53
2019-05-18T22:59:17.033Z,7.17
2019-05-18T23:01:52.306Z,6.63
2019-05-18T23:04:36.826Z,7.10
2019-05-18T23:07:08.396Z,6.87
2019-05-18T23:09:43.642Z,6.70
2019-05-18T23:12:15.295Z,7.23
2019-05-18T23:14:45.508Z,6.70
2019-05-18T23:17:18.356Z,7.57
2019-05-18T23:19:48.020Z,7.53
2019-05-18T23:22:20.108Z,7.33
2019-05-18T23:24:51.984Z,7.90
2019-05-18T23:27:27.629Z,7.60
2019-05-18T23:30:00.438Z,7.87
2019-05-18T23:32:33.812Z,7.43
2019-05-18T23:35:11.104Z,7.23
2019-05-18T23:37:46.666Z,7.07
2019-05-18T23:40:29.232Z,7.10
2019-05-18T23:43:07.207Z,8.27
2019-05-18T23:45:46.935Z,7.93
2019-05-18T23:48:18.796Z,7.17
2019-05-18T23:50:52.797Z,7.73
2019-05-18T23:53:26.456Z,7.83
2019-05-18T23:56:03.139Z,7.60
2019-05-18T23:58:42.746Z,7.93
